createdAt,value
2019-02-07T00:02:43.004Z,-4.62
2019-02-07T00:05:12.140Z,-4.76
2019-02-07T00:07:43.080Z,-5.12
2019-02-07T00:10:28.956Z,-5.28
2019-02-07T00:12:58.022Z,-5.13
2019-02-07T00:15:44.841Z,-5.08
2019-02-07T00:18:38.691Z,-5.08
2019-02-07T00:21:07.773Z,-5.19
2019-02-07T00:23:58.545Z,-5.17
2019-02-07T00:26:53.613Z,-4.97
2019-02-07T00:29:38.858Z,-5.14
2019-02-07T00:32:12.799Z,-5.14
2019-02-07T00:34:54.411Z,-5.08
2019-02-07T00:40:09.004Z,-5.08
2019-02-07T00:42:57.470Z,-4.98
2019-02-07T00:45:30.303Z,-4.95
2019-02-07T00:47:59.379Z,-5.09
2019-02-07T00:50:33.552Z,-5.05
2019-02-07T00:53:02.644Z,-4.97
2019-02-07T00:55:34.097Z,-4.88
2019-02-07T00:58:05.095Z,-4.83
2019-02-07T01:00:39.862Z,-4.78
2019-02-07T01:03:08.924Z,-4.72
2019-02-07T01:05:38.000Z,-4.68
2019-02-07T01:08:08.742Z,-4.60
2019-02-07T01:10:42.042Z,-4.57
2019-02-07T01:13:11.120Z,-4.70
2019-02-07T01:15:41.641Z,-4.91
2019-02-07T01:18:10.700Z,-4.94
2019-02-07T01:20:43.103Z,-4.92
2019-02-07T01:23:14.147Z,-4.82
2019-02-07T01:25:44.179Z,-4.73
2019-02-07T01:30:59.424Z,-4.79
2019-02-07T01:33:29.483Z,-4.84
2019-02-07T01:36:02.706Z,-4.82
2019-02-07T01:38:54.262Z,-4.82
2019-02-07T01:41:25.895Z,-4.74
2019-02-07T01:43:54.999Z,-4.68
2019-02-07T01:49:08.251Z,-4.59
2019-02-07T01:54:23.056Z,-4.53
2019-02-07T01:59:43.060Z,-4.47
2019-02-07T02:02:13.067Z,-4.60
2019-02-07T02:07:27.810Z,-4.48
2019-02-07T02:10:04.451Z,-4.50
2019-02-07T02:12:33.513Z,-4.38
2019-02-07T02:15:03.568Z,-4.39
2019-02-07T02:17:40.337Z,-4.50
2019-02-07T02:20:17.858Z,-4.43
2019-02-07T02:22:55.879Z,-4.28
2019-02-07T02:25:24.937Z,-4.44
2019-02-07T02:30:32.383Z,-4.31
2019-02-07T02:33:01.944Z,-4.27
2019-02-07T02:35:31.939Z,-4.24
2019-02-07T02:41:01.158Z,-4.44
2019-02-07T02:43:30.215Z,-4.29
2019-02-07T02:46:09.681Z,-4.27
2019-02-07T02:48:51.588Z,-4.23
2019-02-07T02:51:25.827Z,-4.15
2019-02-07T02:56:33.147Z,-3.86
2019-02-07T02:59:04.708Z,-4.04
2019-02-07T03:04:16.911Z,-4.08
2019-02-07T03:07:09.642Z,-4.07
2019-02-07T03:09:49.135Z,-4.13
2019-02-07T03:15:04.784Z,-4.23
2019-02-07T03:17:39.396Z,-4.28
2019-02-07T03:20:09.356Z,-4.25
2019-02-07T03:22:42.936Z,-4.31
2019-02-07T03:31:00.129Z,-4.18
2019-02-07T03:45:26.784Z,-4.21
2019-02-07T03:47:59.796Z,-4.17
2019-02-07T03:53:18.388Z,-4.10
2019-02-07T03:55:47.435Z,-4.31
2019-02-07T04:04:16.033Z,-4.35
2019-02-07T04:12:10.160Z,-4.49
2019-02-07T04:17:34.731Z,-4.52
2019-02-07T04:20:06.240Z,-4.52
2019-02-07T04:22:52.712Z,-4.55
2019-02-07T04:25:41.466Z,-4.67
2019-02-07T04:28:12.722Z,-4.56
2019-02-07T04:36:54.229Z,-4.76
2019-02-07T04:42:14.381Z,-4.89
2019-02-07T04:47:50.885Z,-4.96
2019-02-07T04:50:21.579Z,-5.12
2019-02-07T04:53:00.286Z,-5.29
2019-02-07T04:58:05.535Z,-5.42
2019-02-07T05:06:55.636Z,-5.75
2019-02-07T05:09:30.480Z,-5.84
2019-02-07T05:11:59.635Z,-5.95
2019-02-07T05:14:43.972Z,-5.96
2019-02-07T05:17:15.934Z,-6.03
2019-02-07T05:23:03.173Z,-6.05
2019-02-07T05:28:13.707Z,-6.12
2019-02-07T05:30:55.854Z,-5.98
2019-02-07T05:36:03.093Z,-5.85
2019-02-07T05:38:34.275Z,-5.91
2019-02-07T05:41:19.590Z,-5.80
2019-02-07T05:46:38.414Z,-5.40
2019-02-07T05:52:03.079Z,-5.27
2019-02-07T05:54:39.250Z,-5.67
2019-02-07T05:57:24.595Z,-5.74
2019-02-07T06:00:14.859Z,-5.70
2019-02-07T06:09:16.506Z,-5.91
2019-02-07T06:14:31.100Z,-5.77
2019-02-07T06:17:03.188Z,-5.95
2019-02-07T06:22:29.250Z,-5.73
2019-02-07T06:25:19.289Z,-5.43
2019-02-07T06:30:32.995Z,-5.58
2019-02-07T06:33:13.382Z,-5.87
2019-02-07T06:38:36.374Z,-5.93
2019-02-07T06:41:09.669Z,-6.30
2019-02-07T06:43:43.996Z,-6.71
2019-02-07T06:46:19.430Z,-6.45
2019-02-07T06:54:23.748Z,-6.33
2019-02-07T07:05:40.392Z,-6.14
2019-02-07T07:08:12.046Z,-6.38
2019-02-07T07:10:44.899Z,-6.22
2019-02-07T07:13:17.845Z,-5.78
2019-02-07T07:15:57.399Z,-5.75
2019-02-07T07:24:44.257Z,-5.77
2019-02-07T07:27:14.776Z,-5.77
2019-02-07T07:32:44.452Z,-5.14
2019-02-07T07:37:57.196Z,-5.19
2019-02-07T07:40:34.167Z,-5.36
2019-02-07T07:43:10.536Z,-5.29
2019-02-07T07:51:30.765Z,-4.81
2019-02-07T07:54:05.115Z,-4.47
2019-02-07T07:56:40.047Z,-4.28
2019-02-07T07:59:12.078Z,-4.42
2019-02-07T08:01:45.568Z,-4.22
2019-02-07T08:04:16.599Z,-4.06
2019-02-07T08:06:51.241Z,-4.29
2019-02-07T08:12:02.496Z,-3.03
2019-02-07T08:17:16.266Z,-2.66
2019-02-07T08:19:50.729Z,-2.44
2019-02-07T08:30:56.398Z,-1.15
2019-02-07T08:39:06.313Z,-1.71
2019-02-07T08:41:47.186Z,-2.26
2019-02-07T08:47:01.280Z,-1.28
2019-02-07T08:49:34.877Z,-0.57
2019-02-07T08:52:05.689Z,-0.46
2019-02-07T08:55:02.695Z,-1.57
2019-02-07T08:57:36.732Z,-0.23
2019-02-07T09:00:09.996Z,-0.60
2019-02-07T09:02:51.563Z,-0.49
2019-02-07T09:05:19.080Z,-1.44
2019-02-07T09:07:52.856Z,-0.71
2019-02-07T09:10:31.207Z,-0.62
2019-02-07T09:13:05.966Z,0.51
2019-02-07T09:20:59.446Z,4.50
2019-02-07T09:26:35.368Z,7.77
2019-02-07T09:29:08.515Z,8.78
2019-02-07T09:31:41.006Z,7.93
2019-02-07T09:34:15.559Z,8.74
2019-02-07T09:36:56.752Z,7.54
2019-02-07T09:39:31.438Z,7.08
2019-02-07T09:42:03.872Z,4.95
2019-02-07T09:44:46.734Z,4.24
2019-02-07T09:50:15.107Z,5.19
2019-02-07T09:52:45.068Z,4.45
2019-02-07T09:55:15.669Z,4.24
2019-02-07T10:03:34.735Z,4.70
2019-02-07T10:06:08.519Z,4.11
2019-02-07T10:09:03.487Z,3.84
2019-02-07T10:11:51.069Z,4.01
2019-02-07T10:17:21.286Z,4.79
2019-02-07T10:22:30.722Z,5.19
2019-02-07T10:25:04.718Z,5.55
2019-02-07T10:27:38.061Z,5.74
2019-02-07T10:30:08.025Z,5.84
2019-02-07T10:35:22.691Z,5.96
2019-02-07T10:37:44.407Z,5.47
2019-02-07T10:44:48.186Z,5.31
2019-02-07T10:47:30.369Z,5.39
2019-02-07T10:58:21.500Z,6.00
2019-02-07T11:00:56.527Z,6.23
2019-02-07T11:03:31.806Z,6.21
2019-02-07T11:09:03.991Z,5.85
2019-02-07T11:11:33.040Z,6.34
2019-02-07T11:14:13.602Z,6.17
2019-02-07T11:19:31.239Z,7.22
2019-02-07T11:22:05.076Z,7.21
2019-02-07T11:24:35.004Z,6.72
2019-02-07T11:27:12.361Z,6.64
2019-02-07T11:29:43.984Z,6.26
2019-02-07T11:32:16.261Z,6.88
2019-02-07T11:40:08.765Z,6.59
2019-02-07T11:42:38.695Z,6.85
2019-02-07T11:50:43.927Z,8.30
2019-02-07T11:53:33.315Z,8.67
2019-02-07T11:56:13.386Z,8.20
2019-02-07T11:58:49.428Z,8.48
2019-02-07T12:04:17.357Z,8.78
2019-02-07T12:06:50.704Z,9.08
2019-02-07T12:09:21.172Z,8.37
2019-02-07T12:11:52.986Z,7.73
2019-02-07T12:14:27.650Z,8.03
2019-02-07T12:17:13.559Z,8.32
2019-02-07T12:19:48.215Z,8.31
2019-02-07T12:25:14.879Z,8.39
2019-02-07T12:27:50.456Z,8.42
2019-02-07T12:30:21.264Z,7.49
2019-02-07T12:32:52.062Z,7.79
2019-02-07T12:40:58.999Z,7.76
2019-02-07T12:46:22.502Z,7.42
2019-02-07T12:48:57.048Z,7.03
2019-02-07T12:57:53.359Z,7.53
2019-02-07T13:00:28.356Z,7.58
2019-02-07T13:02:58.729Z,7.42
2019-02-07T13:08:33.854Z,7.78
2019-02-07T13:11:07.370Z,7.59
2019-02-07T13:13:52.507Z,8.08
2019-02-07T13:19:02.276Z,8.25
2019-02-07T13:24:15.164Z,7.89
2019-02-07T13:26:44.294Z,7.94
2019-02-07T13:29:19.740Z,8.50
2019-02-07T13:31:54.171Z,8.27
2019-02-07T13:34:33.218Z,7.96
2019-02-07T13:37:17.772Z,7.73
2019-02-07T13:39:57.244Z,8.20
2019-02-07T13:42:37.567Z,8.11
2019-02-07T13:48:08.371Z,7.83
2019-02-07T13:50:44.118Z,7.49
2019-02-07T13:56:06.863Z,7.35
2019-02-07T13:58:40.301Z,6.79
2019-02-07T14:01:25.101Z,6.83
2019-02-07T14:03:55.426Z,6.98
2019-02-07T14:06:27.415Z,6.74
2019-02-07T14:09:03.073Z,6.89
2019-02-07T14:11:39.363Z,7.27
2019-02-07T14:14:13.737Z,6.89
2019-02-07T14:16:57.827Z,7.20
2019-02-07T14:19:40.740Z,7.39
2019-02-07T14:22:15.862Z,7.23
2019-02-07T14:24:50.268Z,7.10
2019-02-07T14:27:21.146Z,7.19
2019-02-07T14:35:35.344Z,6.47
2019-02-07T14:38:20.040Z,5.97
2019-02-07T14:40:54.495Z,5.41
2019-02-07T14:46:34.810Z,5.12
2019-02-07T14:49:06.738Z,4.61
2019-02-07T14:51:39.501Z,4.44
2019-02-07T14:54:11.547Z,4.18
2019-02-07T14:57:06.218Z,4.24
2019-02-07T15:02:16.307Z,4.05
2019-02-07T15:04:51.736Z,4.03
2019-02-07T15:07:26.816Z,4.16
2019-02-07T15:09:59.271Z,4.07
2019-02-07T15:12:28.339Z,3.85
2019-02-07T15:14:57.871Z,4.08
2019-02-07T15:17:26.940Z,4.08
2019-02-07T15:20:00.726Z,4.12
2019-02-07T15:22:30.627Z,4.31
2019-02-07T15:25:03.317Z,4.28
2019-02-07T15:27:39.896Z,4.15
2019-02-07T15:30:10.541Z,4.13
2019-02-07T15:32:40.511Z,4.17
2019-02-07T15:35:10.930Z,4.26
2019-02-07T15:37:39.979Z,4.09
2019-02-07T15:40:10.514Z,4.06
2019-02-07T15:42:39.590Z,4.08
2019-02-07T15:45:08.631Z,4.20
2019-02-07T15:47:50.320Z,4.08
2019-02-07T15:50:21.896Z,4.24
2019-02-07T15:52:52.132Z,4.20
2019-02-07T15:55:20.907Z,4.17
2019-02-07T16:00:38.222Z,4.16
2019-02-07T16:03:07.537Z,4.12
2019-02-07T16:05:36.575Z,4.28
2019-02-07T16:08:05.621Z,4.20
2019-02-07T16:10:34.673Z,4.10
2019-02-07T16:13:04.326Z,4.20
2019-02-07T16:18:09.043Z,4.16
2019-02-07T16:20:48.924Z,4.04
2019-02-07T16:23:14.843Z,4.10
2019-02-07T16:25:50.290Z,4.09
2019-02-07T16:28:20.392Z,4.12
2019-02-07T16:30:53.608Z,4.05
2019-02-07T16:33:24.726Z,3.92
2019-02-07T16:36:03.175Z,4.00
2019-02-07T16:38:36.533Z,3.99
2019-02-07T16:41:05.711Z,3.96
2019-02-07T16:43:40.613Z,4.02
2019-02-07T16:46:10.067Z,3.96
2019-02-07T16:51:15.373Z,3.94
2019-02-07T16:54:03.588Z,3.97
2019-02-07T16:56:35.846Z,3.91
2019-02-07T16:59:06.306Z,3.97
2019-02-07T17:02:02.823Z,3.83
2019-02-07T17:07:08.571Z,4.00
2019-02-07T17:09:41.033Z,3.98
2019-02-07T17:12:10.821Z,3.97
2019-02-07T17:14:43.646Z,3.96
2019-02-07T17:17:12.691Z,4.03
2019-02-07T17:20:00.447Z,3.92
2019-02-07T17:23:04.270Z,3.89
2019-02-07T17:25:42.807Z,3.80
2019-02-07T17:28:11.851Z,3.90
2019-02-07T17:33:22.589Z,3.80
2019-02-07T17:36:03.894Z,3.83
2019-02-07T17:38:32.927Z,3.72
2019-02-07T17:41:02.887Z,3.68
2019-02-07T17:43:33.484Z,3.73
2019-02-07T17:46:03.456Z,3.74
2019-02-07T17:48:46.302Z,3.74
2019-02-07T17:51:22.865Z,3.72
2019-02-07T17:53:50.665Z,3.76
2019-02-07T17:56:19.700Z,3.72
2019-02-07T17:58:48.732Z,3.70
2019-02-07T18:01:17.758Z,3.68
2019-02-07T18:04:00.024Z,3.64
2019-02-07T18:06:47.012Z,3.54
2019-02-07T18:09:16.064Z,3.61
2019-02-07T18:14:20.823Z,3.57
2019-02-07T18:16:52.396Z,3.67
2019-02-07T18:19:21.458Z,3.69
2019-02-07T18:22:03.312Z,3.53
2019-02-07T18:24:57.025Z,3.52
2019-02-07T18:27:31.202Z,3.49
2019-02-07T18:30:07.599Z,3.49
2019-02-07T18:32:49.071Z,3.47
2019-02-07T18:35:18.152Z,3.53
2019-02-07T18:38:03.921Z,3.49
2019-02-07T18:40:43.286Z,3.49
2019-02-07T18:43:12.888Z,3.43
2019-02-07T18:45:42.942Z,3.40
2019-02-07T18:48:11.970Z,3.38
2019-02-07T18:51:02.852Z,3.24
2019-02-07T18:53:39.287Z,3.22
2019-02-07T18:56:08.838Z,3.23
2019-02-07T18:59:03.740Z,3.38
2019-02-07T19:02:04.295Z,3.49
2019-02-07T19:04:34.306Z,3.50
2019-02-07T19:07:03.352Z,3.50
2019-02-07T19:12:10.534Z,3.40
2019-02-07T19:14:40.364Z,3.46
2019-02-07T19:17:29.024Z,3.44
2019-02-07T19:20:05.474Z,3.38
2019-02-07T19:22:34.954Z,3.32
2019-02-07T19:25:29.191Z,3.33
2019-02-07T19:28:23.935Z,3.30
2019-02-07T19:31:01.822Z,3.33
2019-02-07T19:33:30.866Z,3.32
2019-02-07T19:36:01.816Z,3.28
2019-02-07T19:38:32.870Z,3.30
2019-02-07T19:43:35.683Z,3.36
2019-02-07T19:48:52.973Z,3.45
2019-02-07T19:51:29.113Z,3.43
2019-02-07T19:54:22.653Z,3.41
2019-02-07T19:56:56.956Z,3.44
2019-02-07T19:59:26.030Z,3.41
2019-02-07T20:01:55.120Z,3.48
2019-02-07T20:07:14.497Z,3.52
2019-02-07T20:09:52.024Z,3.56
2019-02-07T20:12:25.937Z,3.47
2019-02-07T20:17:45.888Z,3.55
2019-02-07T20:20:29.398Z,3.50
2019-02-07T20:23:29.403Z,3.48
2019-02-07T20:26:02.775Z,3.44
2019-02-07T20:28:32.719Z,3.50
2019-02-07T20:31:02.715Z,3.42
2019-02-07T20:33:32.324Z,3.44
2019-02-07T20:36:30.390Z,3.44
2019-02-07T20:39:11.959Z,3.49
2019-02-07T20:41:40.994Z,3.52
2019-02-07T20:44:28.640Z,3.52
2019-02-07T20:47:12.612Z,3.56
2019-02-07T20:49:41.636Z,3.58
2019-02-07T20:52:27.256Z,3.49
2019-02-07T20:57:34.359Z,3.59
2019-02-07T21:00:17.763Z,3.55
2019-02-07T21:02:46.813Z,3.46
2019-02-07T21:05:30.905Z,3.41
2019-02-07T21:08:00.127Z,3.37
2019-02-07T21:10:30.626Z,3.41
2019-02-07T21:13:03.299Z,3.45
2019-02-07T21:15:32.403Z,3.37
2019-02-07T21:18:01.474Z,3.36
2019-02-07T21:23:06.317Z,3.22
2019-02-07T21:25:53.848Z,3.21
2019-02-07T21:28:22.918Z,3.22
2019-02-07T21:30:52.868Z,3.23
2019-02-07T21:36:06.592Z,3.21
2019-02-07T21:38:53.042Z,3.18
2019-02-07T21:41:43.383Z,3.19
2019-02-07T21:44:12.414Z,3.18
2019-02-07T21:46:52.634Z,3.24
2019-02-07T21:49:40.363Z,3.18
2019-02-07T21:52:09.985Z,3.17
2019-02-07T21:54:52.916Z,3.19
2019-02-07T21:57:23.341Z,3.14
2019-02-07T22:00:00.480Z,3.13
2019-02-07T22:02:39.946Z,3.09
2019-02-07T22:05:09.815Z,3.13
2019-02-07T22:10:54.455Z,3.12
2019-02-07T22:13:24.439Z,2.99
2019-02-07T22:15:53.562Z,3.07
2019-02-07T22:18:41.437Z,2.99
2019-02-07T22:23:46.987Z,2.92
2019-02-07T22:26:20.769Z,2.94
2019-02-07T22:28:50.740Z,2.84
2019-02-07T22:31:20.131Z,2.87
2019-02-07T22:33:52.659Z,2.92
2019-02-07T22:36:34.789Z,2.85
2019-02-07T22:39:07.620Z,2.86
2019-02-07T22:41:36.706Z,2.79
2019-02-07T22:46:42.005Z,2.71
2019-02-07T22:51:53.782Z,2.72
2019-02-07T22:54:31.871Z,2.67
2019-02-07T22:57:14.076Z,2.68
2019-02-07T22:59:43.226Z,2.71
2019-02-07T23:02:13.913Z,2.61
2019-02-07T23:04:43.157Z,2.60
2019-02-07T23:07:12.335Z,2.64
2019-02-07T23:09:44.290Z,2.64
2019-02-07T23:12:13.542Z,2.59
2019-02-07T23:15:05.665Z,2.53
2019-02-07T23:17:34.746Z,2.52
2019-02-07T23:20:09.647Z,2.58
2019-02-07T23:22:41.253Z,2.61
2019-02-07T23:25:10.484Z,2.54
2019-02-07T23:30:18.334Z,2.70
2019-02-07T23:35:23.855Z,2.61
2019-02-07T23:37:52.939Z,2.58
2019-02-07T23:40:22.272Z,2.58
2019-02-07T23:43:00.871Z,2.55
2019-02-07T23:45:46.540Z,2.57
2019-02-07T23:48:16.988Z,2.56
2019-02-07T23:51:07.330Z,2.49
2019-02-07T23:54:02.028Z,2.49
2019-02-07T23:56:45.754Z,2.62
2019-02-07T23:59:14.820Z,2.60
